Airfield :
LOGIN :

Register | Disclaimer

   EN    FR    IT 

 










Legend :    VFR   Marginal VFR   IFR   Intensive IFR   Very Intensive IFR
Visi :
Ceiling :
>= 8 km
>= 3000ft
5 to 8 km
1000 to 3000 ft
1500m to 5 km
500 to 1000 ft
800 to 1500m
200 to 500 ft
< 800m
< 200 ft
Symbols :   Thunderstorms  Fog  Heavy snow  Heavy precipitations  Wind > 20 kt
SIGMETs :     Misc.  Thunderstorms  Icing  Turbulence  Mountain Waves  Volcanic Ashes






- Airport Elevation : 33 ft
- IATA code : MHZ


EGUN - RAF Mildenhall

CURRENT METAR :
  • 161955Z 22005KT 9999 FEW050 BKN095 BKN200 16/09 A2962 RMK AO2A SLP033 T01620091 $

EXPIRED METARs :
  • 161855Z 22007KT 9999 FEW055 SCT090 SCT200 19/08 A2961 RMK AO2A SLP030 T01940078 $
  • 161755Z 23007KT 9999 FEW055 BKN080 BKN200 19/07 A2960 RMK AO2A SLP027 T01930074 10205 20176 52006 $
  • 161655Z 27008KT 9999 FEW050 BKN080 BKN140 19/07 A2959 RMK AO2A SLP023 T01920073 $
  • 161555Z 25009KT 9999 FEW050 BKN075 BKN190 19/08 A2959 RMK AO2A SLP023 T01940078 $

TAF TAF EGUN
Valid from the 16 at 20:00 until the 18 at 02:00 UTC


162001Z 1620/1802 23009KT 9999 SCT040 SCT090 BKN180 QNH2962INS
BECMG 1700/1701 23009KT 8000 BR FEW030 SCT070 SCT160 QNH2969INS
BECMG 1706/1708 23012KT 9999 NSW SCT030 SCT070 BKN160 QNH2977INS
BECMG 1712/1713 25010KT 9999 VCSH SCT035 BKN080 BKN200 QNH2980INS
TEMPO 1714/1719 25010G18KT 9000 -RA BR 620803
BECMG 1718/1720 28006KT 9999 VCSH SCT035 BKN080 BKN180 QNH2987INS
BECMG 1721/1722 27005KT 8000 BR FEW035 SCT080 QNH2990INS
BECMG 1723/1724 27006KT 5000 BR FEW035 SCT080 QNH2991INS TX22/1714Z TN08/1704Z



MET'MAP, your aeronautical weather chart ! - Copyright ORBIFLY December 2007 - Disclaimer

ORBIFLY MET'MAP TEAM :

Programming & Development : Alexandra Zaïnal
Original concept : Baudouin d'Aumeries
Technical & hardware support : Manuel Goepfert
Assistance : Marc-Olivier Méhu




SOURCES & CREDITS :

   NOAA